sensor_id;sensor_type;location;lat;lon;timestamp;pressure;altitude;pressure_sealevel;temperature;humidity
79584;BME280;69053;57.338;18.700;2023-10-31T00:01:45;100124.47;;;7.80;100.00
79584;BME280;69053;57.338;18.700;2023-10-31T00:04:45;100126.75;;;7.83;100.00
79584;BME280;69053;57.338;18.700;2023-10-31T00:07:46;100115.91;;;7.83;100.00
79584;BME280;69053;57.338;18.700;2023-10-31T00:10:46;100122.41;;;7.82;100.00
79584;BME280;69053;57.338;18.700;2023-10-31T00:13:47;100114.66;;;7.86;100.00
79584;BME280;69053;57.338;18.700;2023-10-31T00:16:47;100101.50;;;7.89;100.00
79584;BME280;69053;57.338;18.700;2023-10-31T00:19:48;100107.75;;;7.90;100.00
79584;BME280;69053;57.338;18.700;2023-10-31T00:22:49;100099.84;;;7.88;100.00
79584;BME280;69053;57.338;18.700;2023-10-31T00:25:49;100107.34;;;7.86;100.00
79584;BME280;69053;57.338;18.700;2023-10-31T00:28:50;100118.63;;;7.83;100.00
79584;BME280;69053;57.338;18.700;2023-10-31T00:31:50;100118.00;;;7.81;100.00
79584;BME280;69053;57.338;18.700;2023-10-31T00:34:51;100107.16;;;7.81;100.00
79584;BME280;69053;57.338;18.700;2023-10-31T00:37:51;100101.13;;;7.79;100.00
79584;BME280;69053;57.338;18.700;2023-10-31T00:40:52;100103.84;;;7.79;100.00
79584;BME280;69053;57.338;18.700;2023-10-31T00:43:52;100101.53;;;7.76;100.00
79584;BME280;69053;57.338;18.700;2023-10-31T00:46:52;100099.88;;;7.75;100.00
79584;BME280;69053;57.338;18.700;2023-10-31T00:49:53;100092.78;;;7.74;100.00
79584;BME280;69053;57.338;18.700;2023-10-31T00:52:54;100092.78;;;7.74;100.00
79584;BME280;69053;57.338;18.700;2023-10-31T00:55:54;100084.44;;;7.76;100.00
79584;BME280;69053;57.338;18.700;2023-10-31T00:58:55;100080.69;;;7.77;100.00
79584;BME280;69053;57.338;18.700;2023-10-31T01:01:55;100079.84;;;7.76;100.00
79584;BME280;69053;57.338;18.700;2023-10-31T01:04:56;100075.91;;;7.79;100.00
79584;BME280;69053;57.338;18.700;2023-10-31T01:07:56;100071.28;;;7.79;100.00
79584;BME280;69053;57.338;18.700;2023-10-31T01:10:57;100068.59;;;7.79;100.00
79584;BME280;69053;57.338;18.700;2023-10-31T01:13:57;100075.91;;;7.79;100.00
79584;BME280;69053;57.338;18.700;2023-10-31T01:16:58;100076.72;;;7.79;100.00
79584;BME280;69053;57.338;18.700;2023-10-31T01:19:58;100081.06;;;7.80;100.00
79584;BME280;69053;57.338;18.700;2023-10-31T01:22:59;100082.75;;;7.81;100.00
79584;BME280;69053;57.338;18.700;2023-10-31T01:25:59;100070.88;;;7.82;100.00
79584;BME280;69053;57.338;18.700;2023-10-31T01:28:59;100069.81;;;7.83;100.00
79584;BME280;69053;57.338;18.700;2023-10-31T01:32:00;100055.22;;;7.84;100.00
79584;BME280;69053;57.338;18.700;2023-10-31T01:35:00;100055.44;;;7.83;100.00
79584;BME280;69053;57.338;18.700;2023-10-31T01:38:01;100051.91;;;7.82;100.00
79584;BME280;69053;57.338;18.700;2023-10-31T01:41:02;100051.25;;;7.80;100.00
79584;BME280;69053;57.338;18.700;2023-10-31T01:44:03;100046.91;;;7.79;100.00
79584;BME280;69053;57.338;18.700;2023-10-31T01:47:03;100041.69;;;7.78;100.00
79584;BME280;69053;57.338;18.700;2023-10-31T01:50:06;100035.66;;;7.76;100.00
79584;BME280;69053;57.338;18.700;2023-10-31T01:53:07;100033.38;;;7.73;100.00
79584;BME280;69053;57.338;18.700;2023-10-31T01:56:07;100039.59;;;7.73;100.00
79584;BME280;69053;57.338;18.700;2023-10-31T01:59:08;100027.13;;;7.72;100.00
79584;BME280;69053;57.338;18.700;2023-10-31T02:02:10;100027.94;;;7.73;100.00
79584;BME280;69053;57.338;18.700;2023-10-31T02:05:10;100026.91;;;7.74;100.00
79584;BME280;69053;57.338;18.700;2023-10-31T02:08:11;100015.22;;;7.73;100.00
79584;BME280;69053;57.338;18.700;2023-10-31T02:11:11;100017.91;;;7.73;100.00
79584;BME280;69053;57.338;18.700;2023-10-31T02:14:12;100022.53;;;7.73;100.00
79584;BME280;69053;57.338;18.700;2023-10-31T02:17:12;100013.34;;;7.74;100.00
79584;BME280;69053;57.338;18.700;2023-10-31T02:20:12;100019.59;;;7.74;100.00
79584;BME280;69053;57.338;18.700;2023-10-31T02:23:15;100020.22;;;7.76;100.00
79584;BME280;69053;57.338;18.700;2023-10-31T02:26:15;100013.09;;;7.75;100.00
79584;BME280;69053;57.338;18.700;2023-10-31T02:29:16;100012.50;;;7.73;100.00
79584;BME280;69053;57.338;18.700;2023-10-31T02:32:16;100007.75;;;7.68;100.00
79584;BME280;69053;57.338;18.700;2023-10-31T02:35:17;100011.09;;;7.64;100.00
79584;BME280;69053;57.338;18.700;2023-10-31T02:38:18;100003.59;;;7.59;100.00
79584;BME280;69053;57.338;18.700;2023-10-31T02:41:19;100010.91;;;7.59;100.00
79584;BME280;69053;57.338;18.700;2023-10-31T02:44:19;100004.88;;;7.57;100.00
79584;BME280;69053;57.338;18.700;2023-10-31T02:47:20;100004.88;;;7.57;100.00
79584;BME280;69053;57.338;18.700;2023-10-31T02:50:20;100007.13;;;7.60;100.00
79584;BME280;69053;57.338;18.700;2023-10-31T02:53:21;100000.44;;;7.62;100.00
79584;BME280;69053;57.338;18.700;2023-10-31T02:56:21;100007.31;;;7.65;100.00
79584;BME280;69053;57.338;18.700;2023-10-31T02:59:22;100003.56;;;7.66;100.00
79584;BME280;69053;57.338;18.700;2023-10-31T03:02:22;100010.66;;;7.67;100.00
79584;BME280;69053;57.338;18.700;2023-10-31T03:05:22;99998.16;;;7.66;100.00
79584;BME280;69053;57.338;18.700;2023-10-31T03:08:23;100003.34;;;7.67;100.00
79584;BME280;69053;57.338;18.700;2023-10-31T03:11:24;99994.19;;;7.68;100.00
79584;BME280;69053;57.338;18.700;2023-10-31T03:14:25;99983.34;;;7.68;100.00
79584;BME280;69053;57.338;18.700;2023-10-31T03:17:26;99985.00;;;7.69;100.00
79584;BME280;69053;57.338;18.700;2023-10-31T03:20:28;99985.00;;;7.69;100.00
79584;BME280;69053;57.338;18.700;2023-10-31T03:23:28;99974.97;;;7.70;100.00
79584;BME280;69053;57.338;18.700;2023-10-31T03:26:29;99977.69;;;7.70;100.00
79584;BME280;69053;57.338;18.700;2023-10-31T03:29:29;99974.75;;;7.72;100.00
79584;BME280;69053;57.338;18.700;2023-10-31T03:32:30;99980.19;;;7.72;100.00
79584;BME280;69053;57.338;18.700;2023-10-31T03:35:30;99964.13;;;7.70;100.00
79584;BME280;69053;57.338;18.700;2023-10-31T03:38:31;99959.56;;;7.70;100.00
79584;BME280;69053;57.338;18.700;2023-10-31T03:41:32;99950.56;;;7.70;100.00
79584;BME280;69053;57.338;18.700;2023-10-31T03:44:32;99948.94;;;7.69;100.00
79584;BME280;69053;57.338;18.700;2023-10-31T03:47:33;99946.44;;;7.67;100.00
79584;BME280;69053;57.338;18.700;2023-10-31T03:50:34;99935.59;;;7.67;100.00
79584;BME280;69053;57.338;18.700;2023-10-31T03:53:34;99932.06;;;7.67;100.00
79584;BME280;69053;57.338;18.700;2023-10-31T03:56:42;99926.66;;;7.60;100.00
79584;BME280;69053;57.338;18.700;2023-10-31T03:59:42;99923.56;;;7.57;100.00
79584;BME280;69053;57.338;18.700;2023-10-31T04:02:43;99924.16;;;7.59;100.00
79584;BME280;69053;57.338;18.700;2023-10-31T04:05:43;99918.53;;;7.60;100.00
79584;BME280;69053;57.338;18.700;2023-10-31T04:08:44;99912.72;;;7.57;100.00
79584;BME280;69053;57.338;18.700;2023-10-31T04:11:44;99912.34;;;7.46;100.00
79584;BME280;69053;57.338;18.700;2023-10-31T04:14:45;99911.88;;;7.56;100.00
79584;BME280;69053;57.338;18.700;2023-10-31T04:17:45;99910.19;;;7.62;100.00
79584;BME280;69053;57.338;18.700;2023-10-31T04:20:46;99903.88;;;7.68;100.00
79584;BME280;69053;57.338;18.700;2023-10-31T04:23:46;99903.03;;;7.74;100.00
79584;BME280;69053;57.338;18.700;2023-10-31T04:26:47;99890.84;;;7.83;100.00
79584;BME280;69053;57.338;18.700;2023-10-31T04:29:47;99892.94;;;7.88;100.00
79584;BME280;69053;57.338;18.700;2023-10-31T04:32:48;99898.53;;;7.93;100.00
79584;BME280;69053;57.338;18.700;2023-10-31T04:35:48;99892.44;;;7.98;100.00
79584;BME280;69053;57.338;18.700;2023-10-31T04:38:49;99890.94;;;8.02;100.00
79584;BME280;69053;57.338;18.700;2023-10-31T04:41:49;99880.28;;;8.07;100.00
79584;BME280;69053;57.338;18.700;2023-10-31T04:44:49;99880.66;;;8.11;100.00
79584;BME280;69053;57.338;18.700;2023-10-31T04:47:50;99877.72;;;8.12;100.00
79584;BME280;69053;57.338;18.700;2023-10-31T04:50:50;99877.09;;;8.17;100.00
79584;BME280;69053;57.338;18.700;2023-10-31T04:53:51;99873.91;;;8.20;100.00
79584;BME280;69053;57.338;18.700;2023-10-31T04:56:51;99865.09;;;8.24;100.00
79584;BME280;69053;57.338;18.700;2023-10-31T04:59:52;99854.81;;;8.33;100.00
79584;BME280;69053;57.338;18.700;2023-10-31T05:02:54;99852.31;;;8.32;100.00
79584;BME280;69053;57.338;18.700;2023-10-31T05:05:56;99839.28;;;8.40;100.00
79584;BME280;69053;57.338;18.700;2023-10-31T05:08:57;99840.28;;;8.53;100.00
79584;BME280;69053;57.338;18.700;2023-10-31T05:11:57;99832.88;;;8.60;100.00
79584;BME280;69053;57.338;18.700;2023-10-31T05:14:57;99838.47;;;8.65;100.00
79584;BME280;69053;57.338;18.700;2023-10-31T05:17:58;99837.16;;;8.68;100.00
79584;BME280;69053;57.338;18.700;2023-10-31T05:20:58;99829.41;;;8.71;100.00
79584;BME280;69053;57.338;18.700;2023-10-31T05:23:59;99820.00;;;8.74;100.00
79584;BME280;69053;57.338;18.700;2023-10-31T05:26:59;99819.53;;;8.77;100.00
79584;BME280;69053;57.338;18.700;2023-10-31T05:30:00;99810.91;;;8.80;100.00
79584;BME280;69053;57.338;18.700;2023-10-31T05:33:00;99818.47;;;8.78;100.00
79584;BME280;69053;57.338;18.700;2023-10-31T05:36:01;99813.63;;;8.80;100.00
79584;BME280;69053;57.338;18.700;2023-10-31T05:39:02;99826.31;;;8.86;100.00
79584;BME280;69053;57.338;18.700;2023-10-31T05:42:03;99816.06;;;8.88;100.00
79584;BME280;69053;57.338;18.700;2023-10-31T05:45:04;99818.53;;;8.90;100.00
79584;BME280;69053;57.338;18.700;2023-10-31T05:48:05;99807.22;;;8.93;100.00
79584;BME280;69053;57.338;18.700;2023-10-31T05:51:16;99804.66;;;8.98;100.00
79584;BME280;69053;57.338;18.700;2023-10-31T05:54:16;99797.47;;;9.04;100.00
79584;BME280;69053;57.338;18.700;2023-10-31T05:57:17;99794.53;;;9.05;100.00
79584;BME280;69053;57.338;18.700;2023-10-31T06:00:18;99794.31;;;9.07;100.00
79584;BME280;69053;57.338;18.700;2023-10-31T06:03:18;99793.88;;;9.10;100.00
79584;BME280;69053;57.338;18.700;2023-10-31T06:06:19;99795.50;;;9.11;100.00
79584;BME280;69053;57.338;18.700;2023-10-31T06:09:19;99792.78;;;9.11;100.00
79584;BME280;69053;57.338;18.700;2023-10-31T06:12:19;99798.84;;;9.13;100.00
79584;BME280;69053;57.338;18.700;2023-10-31T06:15:20;99804.88;;;9.15;100.00
79584;BME280;69053;57.338;18.700;2023-10-31T06:18:21;99800.03;;;9.17;100.00
79584;BME280;69053;57.338;18.700;2023-10-31T06:21:21;99798.13;;;9.17;100.00
79584;BME280;69053;57.338;18.700;2023-10-31T06:24:22;99790.84;;;9.18;100.00
79584;BME280;69053;57.338;18.700;2023-10-31T06:27:22;99787.88;;;9.19;100.00
79584;BME280;69053;57.338;18.700;2023-10-31T06:30:23;99793.91;;;9.22;100.00
79584;BME280;69053;57.338;18.700;2023-10-31T06:33:24;99786.38;;;9.24;100.00
79584;BME280;69053;57.338;18.700;2023-10-31T06:36:25;99791.72;;;9.30;100.00
79584;BME280;69053;57.338;18.700;2023-10-31T06:39:25;99792.91;;;9.34;100.00
79584;BME280;69053;57.338;18.700;2023-10-31T06:42:26;99791.34;;;9.38;100.00
79584;BME280;69053;57.338;18.700;2023-10-31T06:45:27;99787.38;;;9.41;100.00
79584;BME280;69053;57.338;18.700;2023-10-31T06:48:27;99784.41;;;9.43;100.00
79584;BME280;69053;57.338;18.700;2023-10-31T06:51:27;99783.97;;;9.46;100.00
79584;BME280;69053;57.338;18.700;2023-10-31T06:54:28;99774.28;;;9.50;100.00
79584;BME280;69053;57.338;18.700;2023-10-31T06:57:28;99768.38;;;9.53;100.00
79584;BME280;69053;57.338;18.700;2023-10-31T07:00:29;99756.06;;;9.50;100.00
79584;BME280;69053;57.338;18.700;2023-10-31T07:03:29;99760.44;;;9.51;100.00
79584;BME280;69053;57.338;18.700;2023-10-31T07:06:30;99749.94;;;9.55;100.00
79584;BME280;69053;57.338;18.700;2023-10-31T07:09:30;99749.47;;;9.58;100.00
79584;BME280;69053;57.338;18.700;2023-10-31T07:12:31;99743.34;;;9.63;100.00
79584;BME280;69053;57.338;18.700;2023-10-31T07:15:32;99734.94;;;9.64;100.00
79584;BME280;69053;57.338;18.700;2023-10-31T07:18:32;99729.63;;;9.69;100.00
79584;BME280;69053;57.338;18.700;2023-10-31T07:21:33;99716.63;;;9.71;100.00
79584;BME280;69053;57.338;18.700;2023-10-31T07:24:33;99718.88;;;9.74;100.00
79584;BME280;69053;57.338;18.700;2023-10-31T07:27:35;99723.84;;;9.77;100.00
79584;BME280;69053;57.338;18.700;2023-10-31T07:30:35;99714.41;;;9.80;100.00
79584;BME280;69053;57.338;18.700;2023-10-31T07:33:37;99713.31;;;9.81;100.00
79584;BME280;69053;57.338;18.700;2023-10-31T07:36:37;99698.66;;;9.82;100.00
79584;BME280;69053;57.338;18.700;2023-10-31T07:39:39;99697.59;;;9.83;100.00
79584;BME280;69053;57.338;18.700;2023-10-31T07:42:40;99693.81;;;9.84;100.00
79584;BME280;69053;57.338;18.700;2023-10-31T07:45:40;99685.66;;;9.84;100.00
79584;BME280;69053;57.338;18.700;2023-10-31T07:48:41;99664.72;;;9.85;100.00
79584;BME280;69053;57.338;18.700;2023-10-31T07:51:41;99670.16;;;9.85;100.00
79584;BME280;69053;57.338;18.700;2023-10-31T07:54:42;99662.59;;;9.87;100.00
79584;BME280;69053;57.338;18.700;2023-10-31T07:57:42;99659.88;;;9.87;100.00
79584;BME280;69053;57.338;18.700;2023-10-31T08:00:43;99656.09;;;9.88;100.00
79584;BME280;69053;57.338;18.700;2023-10-31T08:03:43;99653.94;;;9.90;100.00
79584;BME280;69053;57.338;18.700;2023-10-31T08:06:44;99651.00;;;9.91;100.00
79584;BME280;69053;57.338;18.700;2023-10-31T08:09:44;99631.72;;;9.93;100.00
79584;BME280;69053;57.338;18.700;2023-10-31T08:12:45;99637.16;;;9.93;100.00
79584;BME280;69053;57.338;18.700;2023-10-31T08:15:45;99628.75;;;9.94;100.00
79584;BME280;69053;57.338;18.700;2023-10-31T08:18:46;99620.38;;;9.96;100.00
79584;BME280;69053;57.338;18.700;2023-10-31T08:21:46;99618.47;;;9.97;100.00
79584;BME280;69053;57.338;18.700;2023-10-31T08:24:47;99611.16;;;9.97;100.00
79584;BME280;69053;57.338;18.700;2023-10-31T08:27:48;99600.25;;;9.97;100.00
79584;BME280;69053;57.338;18.700;2023-10-31T08:30:48;99601.09;;;9.98;100.00
79584;BME280;69053;57.338;18.700;2023-10-31T08:33:51;99585.56;;;9.98;100.00
79584;BME280;69053;57.338;18.700;2023-10-31T08:36:52;99576.03;;;9.95;100.00
79584;BME280;69053;57.338;18.700;2023-10-31T08:39:52;99573.31;;;9.95;100.00
79584;BME280;69053;57.338;18.700;2023-10-31T08:42:53;99559.69;;;9.95;100.00
79584;BME280;69053;57.338;18.700;2023-10-31T08:45:55;99558.63;;;9.97;100.00
79584;BME280;69053;57.338;18.700;2023-10-31T08:48:55;99552.94;;;9.98;100.00
79584;BME280;69053;57.338;18.700;2023-10-31T08:51:56;99559.81;;;10.01;100.00
79584;BME280;69053;57.338;18.700;2023-10-31T08:54:56;99539.66;;;10.02;100.00
79584;BME280;69053;57.338;18.700;2023-10-31T08:57:56;99532.94;;;10.04;100.00
79584;BME280;69053;57.338;18.700;2023-10-31T09:00:57;99516.38;;;10.06;100.00
79584;BME280;69053;57.338;18.700;2023-10-31T09:03:57;99510.09;;;10.05;100.00
79584;BME280;69053;57.338;18.700;2023-10-31T09:06:58;99504.41;;;10.07;100.00
79584;BME280;69053;57.338;18.700;2023-10-31T09:09:59;99493.63;;;10.12;100.00
79584;BME280;69053;57.338;18.700;2023-10-31T09:13:00;99492.66;;;10.18;100.00
79584;BME280;69053;57.338;18.700;2023-10-31T09:16:00;99487.56;;;10.22;100.00
79584;BME280;69053;57.338;18.700;2023-10-31T09:19:01;99486.84;;;10.26;100.00
79584;BME280;69053;57.338;18.700;2023-10-31T09:22:01;99477.34;;;10.29;100.00
79584;BME280;69053;57.338;18.700;2023-10-31T09:25:02;99483.59;;;10.29;100.00
79584;BME280;69053;57.338;18.700;2023-10-31T09:28:02;99482.78;;;10.29;100.00
79584;BME280;69053;57.338;18.700;2023-10-31T09:31:03;99469.41;;;10.27;100.00
79584;BME280;69053;57.338;18.700;2023-10-31T09:34:04;99463.97;;;10.27;100.00
79584;BME280;69053;57.338;18.700;2023-10-31T09:37:04;99456.53;;;10.23;100.00
79584;BME280;69053;57.338;18.700;2023-10-31T09:40:05;99441.53;;;10.20;100.00
79584;BME280;69053;57.338;18.700;2023-10-31T09:43:06;99434.44;;;10.19;100.00
79584;BME280;69053;57.338;18.700;2023-10-31T09:46:08;99430.88;;;10.19;100.00
79584;BME280;69053;57.338;18.700;2023-10-31T09:49:10;99421.56;;;10.14;100.00
79584;BME280;69053;57.338;18.700;2023-10-31T09:52:11;99411.66;;;10.08;100.00
79584;BME280;69053;57.338;18.700;2023-10-31T09:55:12;99407.47;;;10.01;100.00
79584;BME280;69053;57.338;18.700;2023-10-31T09:58:12;99399.78;;;9.98;100.00
79584;BME280;69053;57.338;18.700;2023-10-31T10:01:13;99389.72;;;9.98;100.00
79584;BME280;69053;57.338;18.700;2023-10-31T10:04:15;99375.53;;;9.96;100.00
79584;BME280;69053;57.338;18.700;2023-10-31T10:07:19;99376.59;;;9.95;100.00
79584;BME280;69053;57.338;18.700;2023-10-31T10:10:19;99365.72;;;9.95;100.00
79584;BME280;69053;57.338;18.700;2023-10-31T10:13:20;99370.91;;;9.97;100.00
79584;BME280;69053;57.338;18.700;2023-10-31T10:16:31;99366.81;;;9.94;100.00
79584;BME280;69053;57.338;18.700;2023-10-31T10:19:32;99353.69;;;9.91;100.00
79584;BME280;69053;57.338;18.700;2023-10-31T10:22:32;99340.56;;;9.88;100.00
79584;BME280;69053;57.338;18.700;2023-10-31T10:25:36;99338.09;;;9.86;100.00
79584;BME280;69053;57.338;18.700;2023-10-31T10:28:36;99331.03;;;9.85;100.00
79584;BME280;69053;57.338;18.700;2023-10-31T10:31:37;99324.75;;;9.85;100.00
79584;BME280;69053;57.338;18.700;2023-10-31T10:34:37;99324.75;;;9.85;100.00
79584;BME280;69053;57.338;18.700;2023-10-31T10:37:38;99325.81;;;9.84;100.00
79584;BME280;69053;57.338;18.700;2023-10-31T10:40:41;99320.06;;;9.80;100.00
79584;BME280;69053;57.338;18.700;2023-10-31T10:43:43;99312.38;;;9.77;100.00
79584;BME280;69053;57.338;18.700;2023-10-31T10:46:50;99311.81;;;9.75;100.00
79584;BME280;69053;57.338;18.700;2023-10-31T10:49:58;99313.69;;;9.74;100.00
79584;BME280;69053;57.338;18.700;2023-10-31T10:53:24;99307.34;;;9.69;100.00
79584;BME280;69053;57.338;18.700;2023-10-31T10:56:28;99292.06;;;9.68;100.00
79584;BME280;69053;57.338;18.700;2023-10-31T10:59:35;99274.63;;;9.64;100.00
79584;BME280;69053;57.338;18.700;2023-10-31T11:02:40;99284.44;;;9.65;100.00
79584;BME280;69053;57.338;18.700;2023-10-31T11:05:43;99260.44;;;9.62;100.00
79584;BME280;69053;57.338;18.700;2023-10-31T11:08:45;99251.97;;;9.58;100.00
79584;BME280;69053;57.338;18.700;2023-10-31T11:11:47;99248.66;;;9.56;100.00
79584;BME280;69053;57.338;18.700;2023-10-31T11:14:49;99235.09;;;9.56;100.00
79584;BME280;69053;57.338;18.700;2023-10-31T11:17:50;99230.69;;;9.55;100.00
79584;BME280;69053;57.338;18.700;2023-10-31T11:20:52;99220.88;;;9.54;100.00
79584;BME280;69053;57.338;18.700;2023-10-31T11:24:00;99208.38;;;9.53;100.00
79584;BME280;69053;57.338;18.700;2023-10-31T11:27:03;99203.44;;;9.50;100.00
79584;BME280;69053;57.338;18.700;2023-10-31T11:30:22;99200.97;;;9.48;100.00
79584;BME280;69053;57.338;18.700;2023-10-31T11:33:26;99176.75;;;9.47;100.00
79584;BME280;69053;57.338;18.700;2023-10-31T11:36:26;99180.03;;;9.49;100.00
79584;BME280;69053;57.338;18.700;2023-10-31T11:39:27;99171.88;;;9.49;100.00
79584;BME280;69053;57.338;18.700;2023-10-31T11:42:27;99162.66;;;9.50;100.00
79584;BME280;69053;57.338;18.700;2023-10-31T11:45:36;99158.03;;;9.50;100.00
79584;BME280;69053;57.338;18.700;2023-10-31T11:48:48;99154.25;;;9.51;100.00
79584;BME280;69053;57.338;18.700;2023-10-31T11:51:51;99148.00;;;9.51;100.00
79584;BME280;69053;57.338;18.700;2023-10-31T11:54:52;99139.00;;;9.50;100.00
79584;BME280;69053;57.338;18.700;2023-10-31T11:57:52;99137.16;;;9.51;100.00
79584;BME280;69053;57.338;18.700;2023-10-31T12:01:01;99138.78;;;9.52;100.00
79584;BME280;69053;57.338;18.700;2023-10-31T12:04:02;99123.56;;;9.51;100.00
79584;BME280;69053;57.338;18.700;2023-10-31T12:07:04;99121.66;;;9.51;100.00
79584;BME280;69053;57.338;18.700;2023-10-31T12:10:06;99111.84;;;9.50;100.00
79584;BME280;69053;57.338;18.700;2023-10-31T12:13:12;99109.97;;;9.51;100.00
79584;BME280;69053;57.338;18.700;2023-10-31T12:16:13;99106.41;;;9.50;100.00
79584;BME280;69053;57.338;18.700;2023-10-31T12:19:13;99091.75;;;9.51;100.00
79584;BME280;69053;57.338;18.700;2023-10-31T12:22:14;99090.09;;;9.50;100.00
79584;BME280;69053;57.338;18.700;2023-10-31T12:25:15;99087.63;;;9.49;100.00
79584;BME280;69053;57.338;18.700;2023-10-31T12:28:22;99081.13;;;9.50;100.00
79584;BME280;69053;57.338;18.700;2023-10-31T12:31:23;99076.25;;;9.52;100.00
79584;BME280;69053;57.338;18.700;2023-10-31T12:34:24;99074.63;;;9.51;100.00
79584;BME280;69053;57.338;18.700;2023-10-31T12:37:25;99069.19;;;9.51;100.00
79584;BME280;69053;57.338;18.700;2023-10-31T12:40:25;99062.91;;;9.50;100.00
79584;BME280;69053;57.338;18.700;2023-10-31T12:43:26;99053.44;;;9.53;100.00
79584;BME280;69053;57.338;18.700;2023-10-31T12:46:29;99049.91;;;9.52;100.00
79584;BME280;69053;57.338;18.700;2023-10-31T12:49:30;99040.91;;;9.52;100.00
79584;BME280;69053;57.338;18.700;2023-10-31T12:52:45;99043.63;;;9.52;100.00
79584;BME280;69053;57.338;18.700;2023-10-31T12:55:46;99042.56;;;9.53;100.00
79584;BME280;69053;57.338;18.700;2023-10-31T12:58:46;99026.25;;;9.53;100.00
79584;BME280;69053;57.338;18.700;2023-10-31T13:01:47;99019.19;;;9.52;100.00
79584;BME280;69053;57.338;18.700;2023-10-31T13:04:47;99016.47;;;9.52;100.00
79584;BME280;69053;57.338;18.700;2023-10-31T13:07:51;99009.41;;;9.51;100.00
79584;BME280;69053;57.338;18.700;2023-10-31T13:10:52;99011.88;;;9.52;100.00
79584;BME280;69053;57.338;18.700;2023-10-31T13:13:53;99004.53;;;9.53;100.00
79584;BME280;69053;57.338;18.700;2023-10-31T13:16:53;98997.19;;;9.53;100.00
79584;BME280;69053;57.338;18.700;2023-10-31T13:19:54;98996.38;;;9.53;100.00
79584;BME280;69053;57.338;18.700;2023-10-31T13:22:54;98984.69;;;9.52;100.00
79584;BME280;69053;57.338;18.700;2023-10-31T13:25:55;98983.59;;;9.53;100.00
79584;BME280;69053;57.338;18.700;2023-10-31T13:28:55;98980.06;;;9.53;100.00
79584;BME280;69053;57.338;18.700;2023-10-31T13:31:56;98974.13;;;9.56;100.00
79584;BME280;69053;57.338;18.700;2023-10-31T13:34:56;98978.22;;;9.58;100.00
79584;BME280;69053;57.338;18.700;2023-10-31T13:37:57;98969.50;;;9.56;100.00
79584;BME280;69053;57.338;18.700;2023-10-31T13:40:57;98961.34;;;9.56;100.00
79584;BME280;69053;57.338;18.700;2023-10-31T13:43:58;98957.81;;;9.56;100.00
79584;BME280;69053;57.338;18.700;2023-10-31T13:46:58;98964.88;;;9.57;100.00
79584;BME280;69053;57.338;18.700;2023-10-31T13:49:59;98951.84;;;9.59;100.00
79584;BME280;69053;57.338;18.700;2023-10-31T13:52:59;98954.00;;;9.57;100.00
79584;BME280;69053;57.338;18.700;2023-10-31T13:56:00;98952.13;;;9.57;100.00
79584;BME280;69053;57.338;18.700;2023-10-31T13:59:00;98948.31;;;9.58;100.00
79584;BME280;69053;57.338;18.700;2023-10-31T14:02:00;98949.13;;;9.59;100.00
79584;BME280;69053;57.338;18.700;2023-10-31T14:05:02;98952.44;;;9.61;100.00
79584;BME280;69053;57.338;18.700;2023-10-31T14:08:03;98951.34;;;9.62;100.00
79584;BME280;69053;57.338;18.700;2023-10-31T14:11:03;98947.00;;;9.61;100.00
79584;BME280;69053;57.338;18.700;2023-10-31T14:14:05;98948.06;;;9.60;100.00
79584;BME280;69053;57.338;18.700;2023-10-31T14:17:17;98943.44;;;9.61;100.00
79584;BME280;69053;57.338;18.700;2023-10-31T14:20:18;98939.66;;;9.62;100.00
79584;BME280;69053;57.338;18.700;2023-10-31T14:23:18;98942.13;;;9.63;100.00
79584;BME280;69053;57.338;18.700;2023-10-31T14:26:20;98932.88;;;9.64;100.00
79584;BME280;69053;57.338;18.700;2023-10-31T14:29:21;98931.81;;;9.65;100.00
79584;BME280;69053;57.338;18.700;2023-10-31T14:32:21;98933.78;;;9.70;100.00
79584;BME280;69053;57.338;18.700;2023-10-31T14:35:22;98940.84;;;9.71;100.00
79584;BME280;69053;57.338;18.700;2023-10-31T14:38:22;98933.53;;;9.71;100.00
79584;BME280;69053;57.338;18.700;2023-10-31T14:41:22;98926.19;;;9.72;100.00
79584;BME280;69053;57.338;18.700;2023-10-31T14:44:23;98931.88;;;9.70;100.00
79584;BME280;69053;57.338;18.700;2023-10-31T14:47:24;98925.63;;;9.70;100.00
79584;BME280;69053;57.338;18.700;2023-10-31T14:50:24;98921.81;;;9.71;100.00
79584;BME280;69053;57.338;18.700;2023-10-31T14:53:25;98923.47;;;9.72;100.00
79584;BME280;69053;57.338;18.700;2023-10-31T14:56:25;98924.78;;;9.69;100.00
79584;BME280;69053;57.338;18.700;2023-10-31T14:59:27;98916.88;;;9.68;100.00
79584;BME280;69053;57.338;18.700;2023-10-31T15:02:27;98922.31;;;9.68;100.00
79584;BME280;69053;57.338;18.700;2023-10-31T15:05:28;98918.22;;;9.65;100.00
79584;BME280;69053;57.338;18.700;2023-10-31T15:08:28;98918.22;;;9.65;100.00
79584;BME280;69053;57.338;18.700;2023-10-31T15:11:29;98915.75;;;9.64;100.00
79584;BME280;69053;57.338;18.700;2023-10-31T15:14:29;98920.88;;;9.60;100.00
79584;BME280;69053;57.338;18.700;2023-10-31T15:17:30;98912.97;;;9.58;100.00
79584;BME280;69053;57.338;18.700;2023-10-31T15:20:31;98909.69;;;9.56;100.00
79584;BME280;69053;57.338;18.700;2023-10-31T15:23:31;98903.44;;;9.56;100.00
79584;BME280;69053;57.338;18.700;2023-10-31T15:26:32;98902.59;;;9.55;100.00
79584;BME280;69053;57.338;18.700;2023-10-31T15:29:32;98907.22;;;9.55;100.00
79584;BME280;69053;57.338;18.700;2023-10-31T15:32:33;98899.34;;;9.53;100.00
79584;BME280;69053;57.338;18.700;2023-10-31T15:35:34;98902.31;;;9.52;100.00
79584;BME280;69053;57.338;18.700;2023-10-31T15:38:35;98898.22;;;9.49;100.00
79584;BME280;69053;57.338;18.700;2023-10-31T15:41:35;98894.09;;;9.47;100.00
79584;BME280;69053;57.338;18.700;2023-10-31T15:44:36;98893.03;;;9.48;100.00